KEMT

San Gabriel Valley Airport

El Monte, California, USA
METAR KEMT 191645Z 00000KT 10SM CLR 12/08 A3028
Observed Flight Rules
Jan-19 @ 16:45 UTC (22 minutes ago) Visual Flight Rules
Visibility Clouds
10 miles
  • Clear skies
Temperatures Readings
Current 12°C / 54°F
Dewpoint 8°C / 46°F
Humidity 77%
Altimeter 30.28" Hg
Pressure 1025.42 hPa
Elevation 90
METAR KEMT 191645Z 00000KT 10SM CLR 12/08 A3028
Observed Flight Rules
Jan-19 @ 16:45 UTC
(22 minutes ago)
VFR
Clouds
  • Clear skies
Temperature Dewpoint
12°C / 54°F 8°C / 46°F
Humidity Altimeter Pressure
77% 30.28" Hg 1025.42 hPa